メインページ
METAR-TAF:

METAR-TAF

空港 :

ルクセンブルク, ルクセンブルク

ルクセンブルク-フィンデル空港

緯度: 49-37N, 経度: 006-13E, 海抜: 376m

現時点の気象観測

当レポートは16分前の19:20(UTC)に作成
北東の風 11kt
気温 -4°C
湿度 35%
気圧 1022 hPa
視程10km以上
1,500メートル以下は雲なし、積乱雲なし

METAR: ELLX 251920Z 05011KT CAVOK M04/M17 Q1022 NOSIG

時間: 20:36 (19:36 UTC)

予報

当レポートは2時間36分前の17:00(UTC)に作成
予報は25日の 18時(UTC)から 26日の 24時(UTC)まで有効
東/北東の風 14kt
視程10km以上
1,500メートル以下は雲なし、積乱雲なし
25日の 18時(UTC)から 26日の 24時(UTC)まで一時的に
東/北東の風 18kt、最大30ktの突風を伴う

TAF: ELLX 251700Z 2518/2624 06014KT CAVOK TEMPO 2518/2624 06018G30KT

4,000以上の空港の気象観測と天気予報(METAR報とTAF報)

利用可能な観測所は地図上に黄色い丸と赤い丸で示す。

丸の上にカーソルを重ねると観測所名を参照できる。

次にクリックすると気象観測と天気予報を参照できる。

マップの切り替え:黒色「×」印の緑ボタンをクリックして拡大、「-」印の緑ボタンをクリックして縮小、緑色の三角印をクリックして隣りの地図に切り替え


METAR-TAF: